Time;durP1;ratioP1;P1;durP2;ratioP2;P2;SDS_P1;SDS_P2;PMS_P1;PMS_P2;Temp;Humidity;BMP_temperature;BMP_pressure;BME280_temperature;BME280_humidity;BME280_pressure;Samples;Min_cycle;Max_cycle;Signal;HPM_P1;HPM_P2
2021/08/03 00:01:06;;;;;;;4.05;1.50;;;16.30;83.40;;;;;;5033264;28;20029;-59
2021/08/03 00:03:38;;;;;;;1.80;1.13;;;16.30;83.30;;;;;;5036587;28;20029;-60
2021/08/03 00:06:14;;;;;;;4.43;1.25;;;16.30;83.90;;;;;;5033924;28;20086;-59
2021/08/03 00:08:46;;;;;;;2.03;1.10;;;16.30;83.80;;;;;;5030462;28;20025;-60
2021/08/03 00:11:12;;;;;;;3.70;1.02;;;16.30;83.90;;;;;;5030520;28;20100;-60
2021/08/03 00:13:38;;;;;;;3.80;1.20;;;16.30;84.00;;;;;;5028926;28;20536;-60
2021/08/03 00:16:08;;;;;;;3.88;0.80;;;16.30;84.10;;;;;;5029022;28;20061;-60
2021/08/03 00:18:36;;;;;;;4.32;0.98;;;16.30;83.90;;;;;;5034798;28;20118;-60
2021/08/03 00:21:02;;;;;;;5.68;1.35;;;16.30;84.20;;;;;;5031105;28;20048;-60
2021/08/03 00:23:28;;;;;;;2.17;1.00;;;16.30;84.00;;;;;;5035134;28;20029;-60
2021/08/03 00:25:55;;;;;;;7.68;1.45;;;16.20;84.10;;;;;;5029525;28;20055;-60
2021/08/03 00:28:21;;;;;;;5.15;1.10;;;16.20;84.20;;;;;;5036661;28;20061;-60
2021/08/03 00:30:48;;;;;;;8.88;1.63;;;16.20;84.40;;;;;;5035632;28;20489;-60
2021/08/03 00:33:14;;;;;;;3.17;0.95;;;16.20;84.70;;;;;;5031223;28;20112;-60
2021/08/03 00:35:40;;;;;;;6.32;1.15;;;16.20;84.70;;;;;;5027220;28;20582;-59
2021/08/03 00:38:06;;;;;;;3.30;1.42;;;16.20;84.70;;;;;;5028639;28;20041;-62
2021/08/03 00:40:40;;;;;;;16.77;2.22;;;16.20;84.70;;;;;;5044521;28;20029;-62
2021/08/03 00:43:06;;;;;;;4.18;1.33;;;16.20;84.80;;;;;;5029775;28;20068;-62
2021/08/03 00:45:33;;;;;;;1.75;0.95;;;16.20;85.00;;;;;;5032192;28;20057;-62
2021/08/03 00:47:58;;;;;;;3.90;1.60;;;16.20;85.00;;;;;;5028501;28;20036;-62
2021/08/03 00:50:24;;;;;;;1.45;0.70;;;16.20;85.10;;;;;;5028794;28;20496;-59
2021/08/03 00:52:49;;;;;;;3.25;0.80;;;16.20;85.30;;;;;;5027919;28;20106;-60
2021/08/03 00:55:15;;;;;;;3.38;1.27;;;16.10;85.50;;;;;;5027355;28;20029;-60
2021/08/03 00:57:41;;;;;;;7.78;0.90;;;16.10;86.00;;;;;;5028696;28;20474;-60
2021/08/03 01:00:07;;;;;;;3.50;1.00;;;16.10;86.10;;;;;;5036397;28;20171;-60
2021/08/03 01:02:33;;;;;;;5.32;0.90;;;16.10;86.30;;;;;;5028770;28;20023;-60
2021/08/03 01:04:59;;;;;;;3.13;0.80;;;16.10;86.80;;;;;;5030954;28;20029;-62
2021/08/03 01:07:30;;;;;;;8.45;1.50;;;16.00;86.60;;;;;;5035721;28;20025;-62
2021/08/03 01:10:16;;;;;;;3.38;1.20;;;15.90;86.60;;;;;;5031654;28;20611;-62
2021/08/03 01:12:53;;;;;;;3.63;0.60;;;15.80;86.80;;;;;;5029160;28;20025;-61
2021/08/03 01:15:28;;;;;;;1.80;0.55;;;15.80;87.00;;;;;;5029309;28;20283;-62
2021/08/03 01:18:01;;;;;;;4.90;0.70;;;15.70;87.50;;;;;;5031142;28;20025;-60
2021/08/03 01:20:34;;;;;;;5.28;1.40;;;15.70;87.80;;;;;;5033188;28;20017;-59
2021/08/03 01:23:10;;;;;;;2.80;0.82;;;15.70;88.00;;;;;;5030283;28;20668;-59
2021/08/03 01:25:45;;;;;;;;;;;15.70;88.10;;;;;;5031827;28;20748;-60
2021/08/03 01:28:20;;;;;;;2.70;0.80;;;15.70;88.60;;;;;;5028474;28;20536;-60
2021/08/03 01:30:56;;;;;;;1.55;0.63;;;15.70;88.60;;;;;;5043328;28;20403;-59
2021/08/03 01:33:25;;;;;;;9.18;1.92;;;15.70;88.80;;;;;;5034516;28;20032;-59
2021/08/03 01:35:52;;;;;;;1.67;0.90;;;15.70;89.20;;;;;;5030520;28;20448;-59
2021/08/03 01:38:20;;;;;;;4.93;1.30;;;15.70;89.40;;;;;;5043195;28;20028;-60
2021/08/03 01:40:48;;;;;;;2.65;0.65;;;15.60;89.50;;;;;;5044695;28;20029;-60
2021/08/03 01:43:14;;;;;;;8.18;1.55;;;15.60;89.60;;;;;;5038019;28;20252;-60
2021/08/03 01:45:43;;;;;;;3.83;1.27;;;15.50;89.60;;;;;;5034302;28;20445;-60
2021/08/03 01:48:10;;;;;;;6.70;1.40;;;15.70;89.50;;;;;;5026529;28;20021;-60
2021/08/03 01:50:36;;;;;;;2.72;1.70;;;15.90;89.20;;;;;;5029613;28;20032;-60
2021/08/03 01:53:03;;;;;;;1.73;0.95;;;16.10;88.80;;;;;;5028685;28;20120;-60
2021/08/03 01:55:31;;;;;;;1.40;0.63;;;16.30;88.30;;;;;;5029081;28;20033;-60
2021/08/03 01:57:58;;;;;;;2.60;0.70;;;16.30;87.90;;;;;;5028745;28;20037;-60
2021/08/03 02:00:24;;;;;;;3.28;0.73;;;16.30;87.90;;;;;;5027793;28;20064;-60
2021/08/03 02:02:51;;;;;;;2.55;0.73;;;16.30;88.00;;;;;;5031616;28;20029;-60
2021/08/03 02:05:17;;;;;;;2.15;0.52;;;16.20;88.20;;;;;;5026231;28;20033;-60
2021/08/03 02:07:43;;;;;;;1.52;0.90;;;16.20;88.70;;;;;;5028944;28;20029;-59
2021/08/03 02:10:09;;;;;;;8.63;5.55;;;16.30;88.40;;;;;;5031259;28;20536;-59
2021/08/03 02:12:36;;;;;;;1.10;0.90;;;16.50;88.00;;;;;;5033579;28;20061;-59
2021/08/03 02:15:04;;;;;;;1.55;0.70;;;16.60;87.70;;;;;;5033164;28;20026;-60
2021/08/03 02:17:31;;;;;;;2.08;0.90;;;16.70;87.50;;;;;;5034707;28;20033;-59
2021/08/03 02:19:56;;;;;;;5.32;1.13;;;16.70;87.30;;;;;;5036051;28;20025;-59
2021/08/03 02:22:22;;;;;;;2.53;0.82;;;16.80;87.20;;;;;;5044884;28;20040;-59
2021/08/03 02:24:48;;;;;;;1.45;0.70;;;16.80;86.80;;;;;;5030125;28;20037;-59
2021/08/03 02:27:14;;;;;;;1.15;0.50;;;16.70;86.80;;;;;;5043411;28;20104;-59
2021/08/03 02:29:43;;;;;;;2.78;0.70;;;16.70;87.00;;;;;;5028454;28;20061;-59
2021/08/03 02:32:24;;;;;;;1.98;0.93;;;16.70;86.90;;;;;;5033367;28;20560;-60
2021/08/03 02:34:57;;;;;;;6.45;4.32;;;16.70;87.00;;;;;;5028296;28;20117;-60
2021/08/03 02:37:30;;;;;;;6.75;3.35;;;16.80;86.70;;;;;;5037351;28;20025;-59
2021/08/03 02:39:55;;;;;;;1.10;0.80;;;16.90;86.70;;;;;;5028566;28;20025;-59
2021/08/03 02:42:22;;;;;;;5.30;0.93;;;16.90;86.60;;;;;;5024355;28;21232;-59
2021/08/03 02:44:56;;;;;;;1.20;0.52;;;16.90;86.50;;;;;;5029612;28;20091;-59
2021/08/03 02:47:29;;;;;;;3.72;1.50;;;16.90;86.60;;;;;;5032776;28;20087;-59
2021/08/03 02:50:05;;;;;;;2.50;1.20;;;16.90;86.60;;;;;;5034699;28;20045;-59
2021/08/03 02:52:33;;;;;;;;;;;17.00;86.50;;;;;;5030751;28;20037;-59
2021/08/03 02:55:07;;;;;;;1.58;1.00;;;17.10;86.20;;;;;;5038027;28;20361;-62
2021/08/03 02:57:36;;;;;;;3.13;1.27;;;17.10;86.10;;;;;;5031041;28;20371;-62
2021/08/03 03:00:03;;;;;;;2.08;0.50;;;17.10;86.10;;;;;;5034791;28;20024;-62
2021/08/03 03:02:34;;;;;;;4.00;0.68;;;17.10;86.40;;;;;;5029796;28;20036;-62
2021/08/03 03:05:12;;;;;;;4.30;1.05;;;17.10;86.50;;;;;;5025903;28;20053;-62
2021/08/03 03:07:41;;;;;;;3.40;0.88;;;16.90;86.70;;;;;;5031292;28;20290;-62
2021/08/03 03:10:16;;;;;;;1.58;0.68;;;16.90;87.00;;;;;;5031788;28;20025;-62
2021/08/03 03:12:47;;;;;;;4.53;0.93;;;16.80;87.30;;;;;;5030504;28;20025;-63
2021/08/03 03:15:17;;;;;;;3.40;1.33;;;16.80;87.50;;;;;;5030120;28;20017;-63
2021/08/03 03:17:44;;;;;;;1.75;1.20;;;16.80;87.30;;;;;;5028840;28;20500;-63
2021/08/03 03:20:10;;;;;;;3.40;1.38;;;16.90;87.20;;;;;;5026595;28;20032;-62
2021/08/03 03:22:41;;;;;;;3.47;1.25;;;17.00;87.10;;;;;;5027903;28;20033;-62
2021/08/03 03:25:08;;;;;;;3.10;1.10;;;17.00;87.00;;;;;;5025308;28;20029;-63
2021/08/03 03:27:35;;;;;;;3.25;1.20;;;17.10;86.90;;;;;;5031371;28;20033;-62
2021/08/03 03:30:02;;;;;;;3.35;1.60;;;17.10;87.00;;;;;;5026805;28;20038;-60
2021/08/03 03:32:31;;;;;;;1.23;0.80;;;17.10;86.80;;;;;;5026324;28;20053;-60
2021/08/03 03:34:58;;;;;;;1.45;0.82;;;17.00;86.90;;;;;;5025698;28;20022;-60
2021/08/03 03:37:28;;;;;;;5.50;1.38;;;17.00;86.90;;;;;;5031335;28;20072;-59
2021/08/03 03:39:56;;;;;;;4.30;1.63;;;17.00;86.70;;;;;;5037949;28;20029;-60
2021/08/03 03:42:25;;;;;;;1.50;0.88;;;17.10;86.80;;;;;;5032063;28;20121;-60
2021/08/03 03:44:51;;;;;;;2.50;1.27;;;17.00;87.40;;;;;;5032237;28;20063;-60
2021/08/03 03:47:20;;;;;;;1.48;0.45;;;17.00;87.00;;;;;;5029404;28;20057;-60
2021/08/03 03:49:50;;;;;;;3.78;1.00;;;17.00;87.70;;;;;;5032236;28;20058;-60
2021/08/03 03:52:19;;;;;;;1.67;0.90;;;16.90;87.50;;;;;;5043749;23;20042;-57
2021/08/03 03:54:48;;;;;;;1.98;1.17;;;16.80;87.30;;;;;;5033634;28;20036;-56
2021/08/03 03:57:16;;;;;;;2.35;1.23;;;16.80;87.50;;;;;;5037355;28;20390;-57
2021/08/03 03:59:45;;;;;;;2.60;1.35;;;16.90;87.50;;;;;;5033618;28;20022;-57
2021/08/03 04:02:13;;;;;;;1.85;1.20;;;16.90;87.50;;;;;;5028614;28;20036;-57
2021/08/03 04:04:40;;;;;;;1.95;0.98;;;17.00;87.40;;;;;;5034335;28;20056;-56
2021/08/03 04:07:05;;;;;;;3.67;1.15;;;16.90;87.40;;;;;;5029241;28;20069;-56
2021/08/03 04:09:31;;;;;;;2.10;1.55;;;16.90;87.90;;;;;;5028626;28;20042;-57
2021/08/03 04:11:57;;;;;;;4.13;1.73;;;16.90;88.10;;;;;;5028386;28;20047;-57
2021/08/03 04:14:25;;;;;;;4.40;1.17;;;16.90;87.90;;;;;;5032662;28;20466;-57
2021/08/03 04:16:52;;;;;;;2.53;1.35;;;17.00;88.30;;;;;;5033597;28;20401;-57
2021/08/03 04:19:17;;;;;;;3.55;1.88;;;17.00;88.10;;;;;;5041587;28;20060;-57
2021/08/03 04:21:45;;;;;;;4.65;2.22;;;17.00;87.80;;;;;;5030394;28;20033;-57
2021/08/03 04:24:14;;;;;;;5.20;2.30;;;17.10;87.90;;;;;;5033807;28;20421;-57
2021/08/03 04:26:40;;;;;;;6.32;2.15;;;17.00;88.10;;;;;;5028934;28;20112;-57
2021/08/03 04:29:05;;;;;;;3.92;2.10;;;16.90;88.40;;;;;;5028626;28;20152;-56
2021/08/03 04:31:31;;;;;;;4.53;1.33;;;16.90;88.10;;;;;;5037334;28;20104;-57
2021/08/03 04:33:57;;;;;;;2.95;2.05;;;16.90;88.60;;;;;;5030212;28;20363;-57
2021/08/03 04:36:22;;;;;;;6.93;3.33;;;16.80;88.70;;;;;;5029328;28;20029;-57
2021/08/03 04:38:48;;;;;;;5.65;4.13;;;16.80;88.80;;;;;;5028561;28;20048;-57
2021/08/03 04:41:14;;;;;;;19.35;6.72;;;16.90;88.70;;;;;;5028577;28;20460;-57
2021/08/03 04:43:42;;;;;;;17.70;9.27;;;17.00;88.70;;;;;;5043851;28;20383;-57
2021/08/03 04:46:08;;;;;;;26.13;16.58;;;17.00;88.60;;;;;;5037367;28;20352;-57
2021/08/03 04:48:34;;;;;;;18.88;12.00;;;17.00;88.20;;;;;;5044701;28;20029;-56
2021/08/03 04:50:59;;;;;;;13.90;8.73;;;16.80;88.40;;;;;;5028227;28;20022;-65
2021/08/03 04:53:25;;;;;;;13.93;9.00;;;16.70;88.70;;;;;;5029566;28;20025;-57
2021/08/03 04:55:51;;;;;;;11.98;7.45;;;16.70;89.00;;;;;;5027422;28;20467;-63
2021/08/03 04:58:17;;;;;;;9.40;3.53;;;16.80;89.20;;;;;;5039157;28;20037;-63
2021/08/03 05:00:43;;;;;;;4.63;2.95;;;16.70;89.90;;;;;;5029224;28;20423;-57
2021/08/03 05:03:10;;;;;;;9.18;4.45;;;16.50;90.40;;;;;;5034034;28;20027;-56
2021/08/03 05:05:35;;;;;;;7.30;2.88;;;16.30;90.50;;;;;;5030540;28;20043;-57
2021/08/03 05:08:01;;;;;;;6.05;3.50;;;16.10;90.90;;;;;;5029269;28;20029;-57
2021/08/03 05:10:29;;;;;;;11.77;7.40;;;16.00;91.00;;;;;;5030180;28;20049;-56
2021/08/03 05:12:55;;;;;;;4.22;2.05;;;16.10;91.10;;;;;;5034448;28;20277;-58
2021/08/03 05:15:21;;;;;;;4.13;2.47;;;16.20;91.10;;;;;;5028947;28;20083;-57
2021/08/03 05:17:47;;;;;;;9.20;3.67;;;16.20;91.50;;;;;;5029242;28;20061;-57
2021/08/03 05:20:13;;;;;;;11.38;8.48;;;16.20;91.80;;;;;;5029563;28;20494;-56
2021/08/03 05:22:38;;;;;;;5.97;3.65;;;16.10;91.60;;;;;;5030550;28;20098;-57
2021/08/03 05:25:04;;;;;;;5.05;3.42;;;16.10;91.70;;;;;;5031741;28;20470;-57
2021/08/03 05:27:30;;;;;;;8.68;4.72;;;16.20;91.70;;;;;;5030270;28;20108;-57
2021/08/03 05:29:55;;;;;;;8.80;4.45;;;16.40;91.70;;;;;;5031162;28;20092;-57
2021/08/03 05:32:21;;;;;;;5.30;1.98;;;16.50;91.70;;;;;;5029031;28;20049;-57
2021/08/03 05:34:47;;;;;;;4.88;2.63;;;16.50;91.60;;;;;;5028873;28;20116;-57
2021/08/03 05:37:12;;;;;;;8.20;4.60;;;16.40;91.60;;;;;;5029186;28;20537;-56
2021/08/03 05:39:38;;;;;;;4.97;2.72;;;16.30;91.70;;;;;;5028322;28;20028;-57
2021/08/03 05:42:04;;;;;;;10.00;6.22;;;16.30;91.70;;;;;;5026718;28;20116;-57
2021/08/03 05:44:30;;;;;;;4.75;2.85;;;16.20;91.90;;;;;;5030475;28;20032;-57
2021/08/03 05:46:57;;;;;;;11.82;7.18;;;16.20;91.90;;;;;;5027480;28;20056;-56
2021/08/03 05:49:22;;;;;;;4.47;2.83;;;16.30;91.90;;;;;;5047117;28;20481;-56
2021/08/03 05:51:48;;;;;;;2.45;1.73;;;16.30;92.00;;;;;;5046622;28;20108;-57
2021/08/03 05:54:13;;;;;;;5.60;1.63;;;16.30;92.10;;;;;;5046566;28;20024;-57
2021/08/03 05:56:41;;;;;;;3.78;1.83;;;16.40;92.10;;;;;;5031426;28;20029;-56
2021/08/03 05:59:06;;;;;;;4.93;2.10;;;16.40;92.10;;;;;;5033442;28;20036;-56
2021/08/03 06:01:32;;;;;;;7.85;2.60;;;16.40;92.30;;;;;;5028595;28;20038;-56
2021/08/03 06:03:58;;;;;;;3.33;2.15;;;16.50;92.40;;;;;;5029911;28;20029;-56
2021/08/03 06:06:25;;;;;;;4.75;1.73;;;16.50;92.20;;;;;;5036785;28;20037;-57
2021/08/03 06:08:51;;;;;;;5.22;2.38;;;16.50;92.10;;;;;;5048418;28;20074;-59
2021/08/03 06:11:22;;;;;;;6.97;2.40;;;16.50;92.10;;;;;;5038027;28;20025;-56
2021/08/03 06:13:52;;;;;;;6.75;3.83;;;16.50;92.10;;;;;;5037923;28;20032;-57
2021/08/03 06:16:20;;;;;;;3.38;1.95;;;16.50;92.00;;;;;;5035557;28;20021;-55
2021/08/03 06:18:47;;;;;;;4.55;2.03;;;16.50;92.10;;;;;;5048205;28;20035;-56
2021/08/03 06:21:14;;;;;;;2.15;1.65;;;16.50;92.10;;;;;;5039799;28;20101;-56
2021/08/03 06:23:42;;;;;;;5.32;1.88;;;16.50;92.40;;;;;;5028412;28;20067;-56
2021/08/03 06:26:09;;;;;;;2.15;1.42;;;16.50;92.30;;;;;;5038072;28;20025;-57
2021/08/03 06:28:35;;;;;;;2.42;1.23;;;16.60;92.50;;;;;;5033520;28;20493;-56
2021/08/03 06:31:02;;;;;;;12.07;1.20;;;16.70;92.10;;;;;;5042288;28;20479;-56
2021/08/03 06:33:28;;;;;;;2.25;0.98;;;16.70;91.90;;;;;;5047679;28;20071;-56
2021/08/03 06:35:53;;;;;;;1.88;1.30;;;16.70;91.90;;;;;;5029916;28;20033;-56
2021/08/03 06:38:19;;;;;;;3.03;1.50;;;16.60;91.90;;;;;;5028136;28;20037;-55
2021/08/03 06:40:53;;;;;;;3.97;1.73;;;16.60;91.90;;;;;;5028315;28;20028;-56
2021/08/03 06:43:25;;;;;;;5.78;1.75;;;16.60;92.00;;;;;;5047674;28;20464;-55
2021/08/03 06:46:02;;;;;;;2.70;1.90;;;16.70;91.90;;;;;;5031546;28;20037;-57
2021/08/03 06:48:55;;;;;;;2.20;1.83;;;16.70;92.00;;;;;;5039681;28;20036;-56
2021/08/03 06:51:21;;;;;;;2.25;1.60;;;16.80;91.90;;;;;;5027166;28;20386;-57
2021/08/03 06:53:48;;;;;;;4.18;1.67;;;16.90;91.80;;;;;;5027953;28;20073;-57
2021/08/03 06:56:24;;;;;;;5.32;2.33;;;17.00;91.70;;;;;;5028021;28;20103;-56
2021/08/03 06:59:11;;;;;;;6.00;1.90;;;17.00;91.80;;;;;;5032020;28;20052;-57
2021/08/03 07:02:07;;;;;;;2.88;1.30;;;17.10;91.60;;;;;;5041083;28;20033;-57
2021/08/03 07:04:44;;;;;;;6.30;1.42;;;17.20;91.50;;;;;;5040940;28;20078;-56
2021/08/03 07:07:11;;;;;;;3.97;0.88;;;17.30;91.30;;;;;;5038815;28;20033;-57
2021/08/03 07:09:42;;;;;;;2.22;1.35;;;17.20;91.30;;;;;;5033364;28;20604;-56
2021/08/03 07:12:10;;;;;;;3.25;1.25;;;17.30;91.10;;;;;;5031179;28;20022;-56
2021/08/03 07:14:37;;;;;;;3.35;1.33;;;17.40;91.00;;;;;;5036098;28;20059;-56
2021/08/03 07:17:10;;;;;;;3.92;1.45;;;17.40;90.90;;;;;;5032445;28;20094;-56
2021/08/03 07:19:38;;;;;;;2.35;1.10;;;17.50;90.80;;;;;;5045080;28;20034;-55
2021/08/03 07:22:04;;;;;;;1.48;0.70;;;17.70;90.70;;;;;;5026332;28;20033;-56
2021/08/03 07:24:31;;;;;;;1.63;0.77;;;17.90;90.20;;;;;;5030913;28;20490;-57
2021/08/03 07:27:00;;;;;;;3.22;0.70;;;18.00;90.00;;;;;;5026820;28;20421;-57
2021/08/03 07:29:26;;;;;;;3.28;0.77;;;18.10;89.50;;;;;;5029569;28;20059;-55
2021/08/03 07:31:52;;;;;;;1.83;1.02;;;18.20;89.70;;;;;;5032033;28;20031;-55
2021/08/03 07:34:18;;;;;;;2.40;1.02;;;18.20;86.70;;;;;;5027714;28;20026;-55
2021/08/03 07:36:43;;;;;;;4.60;1.60;;;18.20;88.20;;;;;;5027166;28;20044;-56
2021/08/03 07:39:09;;;;;;;3.78;1.08;;;18.30;88.10;;;;;;5027843;28;20537;-56
2021/08/03 07:41:36;;;;;;;3.72;0.98;;;18.50;87.40;;;;;;5026865;28;20088;-56
2021/08/03 07:44:02;;;;;;;1.48;0.90;;;18.70;86.90;;;;;;5028185;28;20033;-56
2021/08/03 07:46:29;;;;;;;8.52;2.63;;;18.80;86.80;;;;;;5032831;28;20115;-55
2021/08/03 07:48:56;;;;;;;4.88;1.52;;;19.00;86.80;;;;;;5031743;28;20489;-56
2021/08/03 07:51:22;;;;;;;3.85;1.80;;;19.20;86.30;;;;;;5029400;28;20025;-56
2021/08/03 07:53:48;;;;;;;2.08;1.27;;;19.20;85.50;;;;;;5026103;28;20038;-57
2021/08/03 07:56:15;;;;;;;4.53;1.77;;;19.30;85.00;;;;;;5026995;28;20493;-57
2021/08/03 07:58:41;;;;;;;4.93;1.10;;;19.30;85.10;;;;;;5028090;28;20068;-54
2021/08/03 08:01:07;;;;;;;5.43;1.10;;;19.40;85.10;;;;;;5027734;28;20080;-55
2021/08/03 08:03:33;;;;;;;1.70;1.40;;;19.60;85.10;;;;;;5027989;28;20363;-56
2021/08/03 08:06:00;;;;;;;3.17;0.90;;;19.80;84.40;;;;;;5032614;28;20052;-55
2021/08/03 08:08:26;;;;;;;4.05;1.17;;;19.90;84.00;;;;;;5035562;28;20483;-56
2021/08/03 08:10:52;;;;;;;2.35;1.10;;;19.90;83.10;;;;;;5028456;28;20453;-55
2021/08/03 08:13:17;;;;;;;1.63;0.95;;;19.80;83.30;;;;;;5026998;28;20034;-55
2021/08/03 08:15:43;;;;;;;2.30;1.33;;;20.10;83.10;;;;;;5027579;28;20486;-54
2021/08/03 08:18:10;;;;;;;6.40;1.20;;;20.40;82.80;;;;;;5027644;28;20543;-58
2021/08/03 08:20:40;;;;;;;4.68;1.27;;;20.60;81.20;;;;;;5026382;28;20025;-53
2021/08/03 08:23:07;;;;;;;3.40;1.05;;;20.70;79.80;;;;;;5025571;28;20050;-56
2021/08/03 08:25:32;;;;;;;3.13;1.67;;;20.70;79.00;;;;;;5028696;28;20478;-56
2021/08/03 08:27:58;;;;;;;3.92;1.25;;;20.80;78.70;;;;;;5033787;28;20029;-56
2021/08/03 08:30:24;;;;;;;5.13;1.10;;;20.70;79.30;;;;;;5032410;28;20033;-57
2021/08/03 08:32:50;;;;;;;2.58;1.33;;;20.70;79.30;;;;;;5029571;28;20036;-56
2021/08/03 08:35:15;;;;;;;2.60;1.40;;;20.80;78.30;;;;;;5034952;28;20442;-56
2021/08/03 08:37:41;;;;;;;2.80;1.42;;;20.70;78.50;;;;;;5029965;28;20029;-56
2021/08/03 08:40:08;;;;;;;2.38;1.27;;;20.70;76.10;;;;;;5044348;28;20021;-57
2021/08/03 08:42:34;;;;;;;6.88;1.40;;;20.40;77.20;;;;;;5033361;28;20029;-56
2021/08/03 08:45:01;;;;;;;3.33;1.30;;;20.30;77.30;;;;;;5040061;28;20437;-57
2021/08/03 08:47:27;;;;;;;1.95;1.20;;;20.40;78.10;;;;;;5033999;28;20462;-57
2021/08/03 08:49:55;;;;;;;2.45;1.15;;;20.40;77.50;;;;;;5034146;28;20045;-56
2021/08/03 08:52:21;;;;;;;5.28;1.20;;;20.50;76.90;;;;;;5033895;28;20030;-55
2021/08/03 08:54:47;;;;;;;4.07;1.00;;;20.40;76.60;;;;;;5027495;28;20204;-56
2021/08/03 08:57:12;;;;;;;2.17;0.70;;;20.40;77.70;;;;;;5027657;28;20050;-56
2021/08/03 08:59:38;;;;;;;2.63;0.60;;;20.50;75.90;;;;;;5034398;28;20526;-54
2021/08/03 09:02:04;;;;;;;3.70;1.00;;;20.30;76.20;;;;;;5044709;28;20048;-56
2021/08/03 09:04:30;;;;;;;1.40;0.82;;;20.10;75.30;;;;;;5034064;28;20033;-56
2021/08/03 09:07:07;;;;;;;9.00;0.80;;;20.00;75.20;;;;;;5026834;28;20037;-57
2021/08/03 09:09:45;;;;;;;2.35;0.60;;;19.80;75.60;;;;;;5033872;28;20028;-56
2021/08/03 09:12:12;;;;;;;5.82;1.65;;;19.80;75.50;;;;;;5027584;28;20030;-56
2021/08/03 09:14:43;;;;;;;9.07;2.22;;;19.70;74.40;;;;;;5027780;28;20075;-57
2021/08/03 09:17:10;;;;;;;2.22;1.27;;;19.60;75.70;;;;;;5046411;28;20033;-58
2021/08/03 09:19:41;;;;;;;2.28;1.08;;;19.60;76.40;;;;;;5035980;28;20052;-57
2021/08/03 09:22:20;;;;;;;3.60;1.35;;;19.70;77.00;;;;;;5041673;28;20424;-56
2021/08/03 09:24:49;;;;;;;3.17;1.60;;;19.60;77.00;;;;;;5041043;28;20183;-58
2021/08/03 09:27:31;;;;;;;3.95;1.60;;;19.60;77.20;;;;;;5034840;28;20036;-57
2021/08/03 09:29:57;;;;;;;6.35;1.63;;;19.50;77.40;;;;;;5055093;28;20021;-56
2021/08/03 09:32:34;;;;;;;3.88;1.80;;;19.50;77.50;;;;;;5045748;28;20431;-55
2021/08/03 09:35:05;;;;;;;2.63;1.33;;;19.50;78.60;;;;;;5035580;28;20393;-55
2021/08/03 09:37:35;;;;;;;4.60;1.23;;;19.40;78.00;;;;;;5047445;28;20032;-57
2021/08/03 09:40:02;;;;;;;2.40;1.25;;;19.50;78.20;;;;;;5034659;28;20031;-57
2021/08/03 09:42:28;;;;;;;2.00;1.15;;;19.50;78.00;;;;;;5028257;28;20103;-56
2021/08/03 09:44:58;;;;;;;5.28;1.80;;;19.60;78.00;;;;;;5036435;28;20086;-58
2021/08/03 09:47:26;;;;;;;4.00;2.15;;;19.70;77.50;;;;;;5047930;28;20033;-57
2021/08/03 09:49:54;;;;;;;3.55;1.95;;;19.80;77.00;;;;;;5037349;28;20492;-56
2021/08/03 09:52:31;;;;;;;2.40;1.10;;;20.00;76.70;;;;;;5034254;28;20052;-53
2021/08/03 09:55:07;;;;;;;2.47;1.88;;;20.30;76.40;;;;;;5037641;28;20203;-52
2021/08/03 09:57:32;;;;;;;3.13;1.85;;;20.60;76.00;;;;;;5046735;28;20029;-57
2021/08/03 09:59:58;;;;;;;2.65;1.73;;;20.80;75.10;;;;;;5028662;28;20041;-54
2021/08/03 10:02:26;;;;;;;3.28;1.77;;;20.70;74.30;;;;;;5028402;28;20029;-52
2021/08/03 10:04:53;;;;;;;4.13;1.50;;;20.70;74.10;;;;;;5038790;28;20049;-58
2021/08/03 10:07:19;;;;;;;3.05;1.92;;;20.60;73.50;;;;;;5047948;28;20041;-57
2021/08/03 10:09:46;;;;;;;4.18;1.30;;;20.80;74.20;;;;;;5041635;28;20021;-55
2021/08/03 10:12:12;;;;;;;4.15;2.03;;;20.90;73.30;;;;;;5047748;28;20385;-53
2021/08/03 10:14:38;;;;;;;4.22;2.10;;;20.90;72.80;;;;;;5038370;28;20105;-55
2021/08/03 10:17:04;;;;;;;2.35;1.88;;;20.90;72.30;;;;;;5033917;28;20501;-54
2021/08/03 10:19:33;;;;;;;2.38;1.50;;;21.00;73.10;;;;;;5043928;28;20029;-54
2021/08/03 10:22:05;;;;;;;9.80;2.55;;;21.20;72.20;;;;;;5047486;28;20481;-55
2021/08/03 10:24:38;;;;;;;20.33;3.42;;;21.40;71.70;;;;;;5038915;28;20029;-55
2021/08/03 10:27:14;;;;;;;4.93;2.65;;;21.60;71.70;;;;;;5047578;28;20104;-54
2021/08/03 10:29:47;;;;;;;5.00;2.22;;;21.80;71.70;;;;;;5044803;28;20066;-53
2021/08/03 10:32:39;;;;;;;3.35;2.13;;;22.30;70.60;;;;;;5031666;28;20028;-55
2021/08/03 10:35:13;;;;;;;2.50;1.70;;;22.20;69.60;;;;;;5027470;28;20025;-54
2021/08/03 10:37:59;;;;;;;6.78;4.72;;;22.10;69.90;;;;;;5044908;28;20034;-58
2021/08/03 10:41:01;;;;;;;5.38;2.35;;;22.00;69.70;;;;;;5030545;28;20079;-54
2021/08/03 10:43:37;;;;;;;5.88;4.53;;;21.90;68.80;;;;;;5031805;28;20044;-54
2021/08/03 10:46:08;;;;;;;6.80;4.60;;;21.80;69.30;;;;;;5029511;28;20033;-59
2021/08/03 10:48:37;;;;;;;4.93;4.43;;;21.80;69.60;;;;;;5030932;28;20025;-55
2021/08/03 10:51:15;;;;;;;7.45;5.95;;;22.00;69.20;;;;;;5026864;28;20036;-55
2021/08/03 10:54:03;;;;;;;7.55;3.80;;;22.10;69.60;;;;;;5037270;28;20029;-58
2021/08/03 10:56:50;;;;;;;4.82;2.97;;;22.30;69.00;;;;;;5030512;28;20083;-57
2021/08/03 10:59:32;;;;;;;6.22;3.95;;;22.30;68.40;;;;;;5028248;28;20045;-55
2021/08/03 11:01:58;;;;;;;4.90;2.83;;;22.20;68.40;;;;;;5031664;28;20132;-52
2021/08/03 11:04:42;;;;;;;11.52;6.60;;;22.10;67.50;;;;;;5027164;28;20033;-55
2021/08/03 11:07:27;;;;;;;5.57;3.42;;;22.10;68.00;;;;;;5027049;28;20040;-55
2021/08/03 11:10:01;;;;;;;7.35;5.45;;;22.10;65.80;;;;;;5029716;28;20611;-54
2021/08/03 11:12:44;;;;;;;5.57;3.38;;;21.80;66.50;;;;;;5028452;28;20022;-52
2021/08/03 11:15:25;;;;;;;5.65;3.53;;;21.80;65.80;;;;;;5030183;28;20036;-56
2021/08/03 11:17:58;;;;;;;5.53;4.72;;;21.60;65.80;;;;;;5037289;28;20030;-59
2021/08/03 11:20:41;;;;;;;6.25;3.30;;;21.60;66.60;;;;;;5032518;28;20047;-54
2021/08/03 11:23:17;;;;;;;6.55;3.50;;;21.90;66.70;;;;;;5030847;28;20030;-60
2021/08/03 11:25:44;;;;;;;;;;;22.10;67.00;;;;;;5025469;28;20029;-55
2021/08/03 11:28:11;;;;;;;;;;;22.30;67.50;;;;;;5027364;28;20303;-58
2021/08/03 11:30:38;;;;;;;;;;;22.40;65.90;;;;;;5027706;28;19913;-52
2021/08/03 11:33:05;;;;;;;3.88;3.28;;;22.50;66.00;;;;;;5025894;28;20273;-57
2021/08/03 11:35:31;;;;;;;4.93;3.30;;;22.50;66.00;;;;;;5026672;28;20025;-57
2021/08/03 11:38:02;;;;;;;4.25;2.60;;;22.40;65.70;;;;;;5025773;28;20040;-56
2021/08/03 11:40:28;;;;;;;3.10;2.42;;;22.40;65.90;;;;;;5030533;28;20026;-59
2021/08/03 11:42:57;;;;;;;4.40;2.00;;;22.50;65.90;;;;;;5025268;28;20033;-57
2021/08/03 11:45:23;;;;;;;5.65;3.72;;;22.40;64.90;;;;;;5030898;28;20069;-58
2021/08/03 11:47:54;;;;;;;6.93;2.97;;;22.40;65.10;;;;;;5027053;28;20083;-57
2021/08/03 11:50:34;;;;;;;8.02;3.47;;;22.50;64.70;;;;;;5027014;28;20048;-55
2021/08/03 11:53:07;;;;;;;5.05;2.40;;;22.60;64.60;;;;;;5026059;28;20590;-54
2021/08/03 11:55:37;;;;;;;13.30;4.25;;;22.70;64.50;;;;;;5030024;28;20052;-56
2021/08/03 11:58:05;;;;;;;9.00;3.70;;;22.80;64.60;;;;;;5027597;28;20044;-55
2021/08/03 12:00:31;;;;;;;8.75;2.85;;;22.90;64.10;;;;;;5030551;28;20037;-57
2021/08/03 12:02:57;;;;;;;2.67;1.92;;;22.90;63.80;;;;;;5033244;28;20033;-59
2021/08/03 12:05:31;;;;;;;8.73;2.78;;;23.10;63.30;;;;;;5036256;28;20116;-60
2021/08/03 12:08:14;;;;;;;4.07;2.28;;;23.10;62.70;;;;;;5035744;28;20029;-55
2021/08/03 12:10:44;;;;;;;4.22;2.08;;;23.00;62.30;;;;;;5033057;28;20171;-56
2021/08/03 12:13:11;;;;;;;4.38;2.60;;;22.90;62.40;;;;;;5028890;28;20029;-55
2021/08/03 12:15:56;;;;;;;3.20;2.47;;;22.80;62.60;;;;;;5030511;28;20375;-56
2021/08/03 12:18:22;;;;;;;5.43;2.92;;;22.80;62.90;;;;;;5034827;28;20026;-55
2021/08/03 12:20:55;;;;;;;3.05;1.90;;;22.90;63.40;;;;;;5030591;28;20029;-56
2021/08/03 12:23:28;;;;;;;4.88;2.33;;;22.90;62.70;;;;;;5031133;28;20036;-56
2021/08/03 12:25:58;;;;;;;4.13;2.45;;;22.80;62.00;;;;;;5031484;28;20037;-56
2021/08/03 12:28:34;;;;;;;4.85;3.05;;;22.80;62.60;;;;;;5031257;28;20047;-55
2021/08/03 12:31:17;;;;;;;2.60;2.33;;;22.80;62.60;;;;;;5032222;28;20216;-56
2021/08/03 12:33:43;;;;;;;3.58;2.80;;;22.90;62.40;;;;;;5030560;28;20026;-58
2021/08/03 12:36:15;;;;;;;4.90;2.65;;;23.00;62.70;;;;;;5029526;28;20387;-60
2021/08/03 12:38:44;;;;;;;5.65;2.13;;;23.10;62.60;;;;;;5046785;28;20068;-56
2021/08/03 12:41:18;;;;;;;3.38;1.90;;;23.20;62.90;;;;;;5031300;28;20045;-55
2021/08/03 12:43:44;;;;;;;5.63;2.20;;;23.30;61.00;;;;;;5030571;28;20024;-57
2021/08/03 12:46:10;;;;;;;4.97;2.38;;;23.20;61.80;;;;;;5037168;28;20029;-56
2021/08/03 12:48:37;;;;;;;4.28;2.15;;;23.20;61.40;;;;;;5036996;28;20021;-60
2021/08/03 12:51:03;;;;;;;4.00;2.05;;;23.20;61.60;;;;;;5032789;28;20529;-56
2021/08/03 12:53:32;;;;;;;3.83;2.60;;;23.30;60.80;;;;;;5035101;28;20037;-56
2021/08/03 12:56:17;;;;;;;4.82;2.17;;;23.20;60.10;;;;;;5042983;28;20588;-57
2021/08/03 12:58:45;;;;;;;5.03;2.50;;;23.10;60.70;;;;;;5033830;28;20036;-54